sensor_id;sensor_type;location;lat;lon;timestamp;P1;durP1;ratioP1;P2;durP2;ratioP2
8094;SDS011;4090;49.270;8.696;2023-08-06T00:00:08;2.30;;;2.10;;
8094;SDS011;4090;49.270;8.696;2023-08-06T00:02:50;4.07;;;2.22;;
8094;SDS011;4090;49.270;8.696;2023-08-06T00:05:32;3.22;;;2.50;;
8094;SDS011;4090;49.270;8.696;2023-08-06T00:08:14;2.70;;;2.28;;
8094;SDS011;4090;49.270;8.696;2023-08-06T00:10:57;2.63;;;2.10;;
8094;SDS011;4090;49.270;8.696;2023-08-06T00:13:39;2.88;;;2.38;;
8094;SDS011;4090;49.270;8.696;2023-08-06T00:16:22;4.50;;;2.65;;
8094;SDS011;4090;49.270;8.696;2023-08-06T00:19:05;3.50;;;2.50;;
8094;SDS011;4090;49.270;8.696;2023-08-06T00:21:47;3.75;;;2.10;;
8094;SDS011;4090;49.270;8.696;2023-08-06T00:24:29;2.88;;;2.17;;
8094;SDS011;4090;49.270;8.696;2023-08-06T00:27:11;3.38;;;2.30;;
8094;SDS011;4090;49.270;8.696;2023-08-06T00:29:53;3.60;;;2.42;;
8094;SDS011;4090;49.270;8.696;2023-08-06T00:32:37;3.90;;;2.58;;
8094;SDS011;4090;49.270;8.696;2023-08-06T00:35:19;2.40;;;2.20;;
8094;SDS011;4090;49.270;8.696;2023-08-06T00:38:02;2.38;;;1.80;;
8094;SDS011;4090;49.270;8.696;2023-08-06T00:40:44;2.65;;;2.30;;
8094;SDS011;4090;49.270;8.696;2023-08-06T00:43:26;2.88;;;2.22;;
8094;SDS011;4090;49.270;8.696;2023-08-06T00:46:09;3.63;;;2.10;;
8094;SDS011;4090;49.270;8.696;2023-08-06T00:48:52;3.85;;;2.30;;
8094;SDS011;4090;49.270;8.696;2023-08-06T00:51:35;5.03;;;1.90;;
8094;SDS011;4090;49.270;8.696;2023-08-06T00:54:18;2.85;;;2.30;;
8094;SDS011;4090;49.270;8.696;2023-08-06T00:57:00;2.33;;;2.13;;
8094;SDS011;4090;49.270;8.696;2023-08-06T00:59:43;2.67;;;2.40;;
8094;SDS011;4090;49.270;8.696;2023-08-06T01:02:25;2.20;;;2.00;;
8094;SDS011;4090;49.270;8.696;2023-08-06T01:05:09;2.50;;;2.28;;
8094;SDS011;4090;49.270;8.696;2023-08-06T01:07:56;3.17;;;2.22;;
8094;SDS011;4090;49.270;8.696;2023-08-06T01:10:47;6.13;;;2.45;;
8094;SDS011;4090;49.270;8.696;2023-08-06T01:13:35;6.63;;;2.30;;
8094;SDS011;4090;49.270;8.696;2023-08-06T01:16:20;2.17;;;1.88;;
8094;SDS011;4090;49.270;8.696;2023-08-06T01:19:02;5.32;;;2.33;;
8094;SDS011;4090;49.270;8.696;2023-08-06T01:21:46;2.60;;;2.40;;
8094;SDS011;4090;49.270;8.696;2023-08-06T01:24:28;3.03;;;2.35;;
8094;SDS011;4090;49.270;8.696;2023-08-06T01:27:11;2.97;;;2.28;;
8094;SDS011;4090;49.270;8.696;2023-08-06T01:29:56;4.22;;;2.20;;
8094;SDS011;4090;49.270;8.696;2023-08-06T01:32:46;2.40;;;2.20;;
8094;SDS011;4090;49.270;8.696;2023-08-06T01:35:30;2.30;;;2.10;;
8094;SDS011;4090;49.270;8.696;2023-08-06T01:38:14;2.95;;;2.22;;
8094;SDS011;4090;49.270;8.696;2023-08-06T01:40:57;5.40;;;2.33;;
8094;SDS011;4090;49.270;8.696;2023-08-06T01:43:39;2.42;;;1.90;;
8094;SDS011;4090;49.270;8.696;2023-08-06T01:46:21;4.13;;;2.00;;
8094;SDS011;4090;49.270;8.696;2023-08-06T01:49:05;3.08;;;2.00;;
8094;SDS011;4090;49.270;8.696;2023-08-06T01:51:47;3.88;;;2.53;;
8094;SDS011;4090;49.270;8.696;2023-08-06T01:54:31;2.38;;;2.17;;
8094;SDS011;4090;49.270;8.696;2023-08-06T01:57:13;2.05;;;1.80;;
8094;SDS011;4090;49.270;8.696;2023-08-06T01:59:55;2.63;;;2.10;;
8094;SDS011;4090;49.270;8.696;2023-08-06T02:02:38;2.05;;;1.95;;
8094;SDS011;4090;49.270;8.696;2023-08-06T02:05:21;4.90;;;2.08;;
8094;SDS011;4090;49.270;8.696;2023-08-06T02:08:04;4.05;;;2.97;;
8094;SDS011;4090;49.270;8.696;2023-08-06T02:10:47;2.47;;;2.13;;
8094;SDS011;4090;49.270;8.696;2023-08-06T02:13:29;5.50;;;2.00;;
8094;SDS011;4090;49.270;8.696;2023-08-06T02:16:12;2.95;;;1.77;;
8094;SDS011;4090;49.270;8.696;2023-08-06T02:18:54;3.67;;;1.98;;
8094;SDS011;4090;49.270;8.696;2023-08-06T02:21:40;2.33;;;2.13;;
8094;SDS011;4090;49.270;8.696;2023-08-06T02:24:22;2.58;;;2.17;;
8094;SDS011;4090;49.270;8.696;2023-08-06T02:27:06;1.90;;;1.80;;
8094;SDS011;4090;49.270;8.696;2023-08-06T02:29:49;2.92;;;2.20;;
8094;SDS011;4090;49.270;8.696;2023-08-06T02:32:31;2.30;;;1.90;;
8094;SDS011;4090;49.270;8.696;2023-08-06T02:35:15;2.05;;;1.85;;
8094;SDS011;4090;49.270;8.696;2023-08-06T02:37:59;2.70;;;2.00;;
8094;SDS011;4090;49.270;8.696;2023-08-06T02:40:45;3.30;;;1.80;;
8094;SDS011;4090;49.270;8.696;2023-08-06T02:43:29;2.50;;;1.63;;
8094;SDS011;4090;49.270;8.696;2023-08-06T02:46:11;2.00;;;1.80;;
8094;SDS011;4090;49.270;8.696;2023-08-06T02:48:53;4.38;;;1.85;;
8094;SDS011;4090;49.270;8.696;2023-08-06T02:51:36;2.00;;;1.60;;
8094;SDS011;4090;49.270;8.696;2023-08-06T02:54:18;2.60;;;1.70;;
8094;SDS011;4090;49.270;8.696;2023-08-06T02:57:00;6.63;;;1.90;;
8094;SDS011;4090;49.270;8.696;2023-08-06T02:59:46;3.83;;;1.90;;
8094;SDS011;4090;49.270;8.696;2023-08-06T03:02:32;3.55;;;2.13;;
8094;SDS011;4090;49.270;8.696;2023-08-06T03:05:37;2.50;;;2.13;;
8094;SDS011;4090;49.270;8.696;2023-08-06T03:08:20;4.55;;;1.80;;
8094;SDS011;4090;49.270;8.696;2023-08-06T03:11:04;3.92;;;1.80;;
8094;SDS011;4090;49.270;8.696;2023-08-06T03:13:46;4.28;;;1.92;;
8094;SDS011;4090;49.270;8.696;2023-08-06T03:16:30;3.42;;;1.90;;
8094;SDS011;4090;49.270;8.696;2023-08-06T03:19:14;3.75;;;2.55;;
8094;SDS011;4090;49.270;8.696;2023-08-06T03:21:56;2.42;;;1.83;;
8094;SDS011;4090;49.270;8.696;2023-08-06T03:24:39;2.83;;;2.20;;
8094;SDS011;4090;49.270;8.696;2023-08-06T03:27:22;2.88;;;2.15;;
8094;SDS011;4090;49.270;8.696;2023-08-06T03:30:06;3.70;;;1.90;;
8094;SDS011;4090;49.270;8.696;2023-08-06T03:32:51;4.13;;;2.10;;
8094;SDS011;4090;49.270;8.696;2023-08-06T03:35:35;2.88;;;1.80;;
8094;SDS011;4090;49.270;8.696;2023-08-06T03:38:17;2.13;;;1.70;;
8094;SDS011;4090;49.270;8.696;2023-08-06T03:40:59;3.55;;;1.90;;
8094;SDS011;4090;49.270;8.696;2023-08-06T03:43:41;3.85;;;2.08;;
8094;SDS011;4090;49.270;8.696;2023-08-06T03:46:29;4.38;;;2.17;;
8094;SDS011;4090;49.270;8.696;2023-08-06T03:49:16;5.18;;;2.28;;
8094;SDS011;4090;49.270;8.696;2023-08-06T03:51:58;4.25;;;2.00;;
8094;SDS011;4090;49.270;8.696;2023-08-06T03:54:40;2.38;;;1.73;;
8094;SDS011;4090;49.270;8.696;2023-08-06T03:57:23;2.72;;;1.52;;
8094;SDS011;4090;49.270;8.696;2023-08-06T04:00:06;4.07;;;1.67;;
8094;SDS011;4090;49.270;8.696;2023-08-06T04:02:55;1.70;;;1.30;;
8094;SDS011;4090;49.270;8.696;2023-08-06T04:05:38;2.85;;;1.60;;
8094;SDS011;4090;49.270;8.696;2023-08-06T04:08:21;2.95;;;1.40;;
8094;SDS011;4090;49.270;8.696;2023-08-06T04:11:03;3.25;;;1.13;;
8094;SDS011;4090;49.270;8.696;2023-08-06T04:13:45;3.20;;;1.80;;
8094;SDS011;4090;49.270;8.696;2023-08-06T04:16:27;4.88;;;2.10;;
8094;SDS011;4090;49.270;8.696;2023-08-06T04:19:10;3.90;;;1.30;;
8094;SDS011;4090;49.270;8.696;2023-08-06T04:21:53;6.93;;;1.73;;
8094;SDS011;4090;49.270;8.696;2023-08-06T04:24:35;5.30;;;1.77;;
8094;SDS011;4090;49.270;8.696;2023-08-06T04:27:18;3.53;;;1.58;;
8094;SDS011;4090;49.270;8.696;2023-08-06T04:30:02;4.85;;;1.40;;
8094;SDS011;4090;49.270;8.696;2023-08-06T04:32:45;3.38;;;1.65;;
8094;SDS011;4090;49.270;8.696;2023-08-06T04:35:27;3.53;;;1.30;;
8094;SDS011;4090;49.270;8.696;2023-08-06T04:38:11;3.03;;;1.40;;
8094;SDS011;4090;49.270;8.696;2023-08-06T04:40:54;3.55;;;1.60;;
8094;SDS011;4090;49.270;8.696;2023-08-06T04:43:37;3.55;;;1.60;;
8094;SDS011;4090;49.270;8.696;2023-08-06T04:46:19;4.40;;;1.42;;
8094;SDS011;4090;49.270;8.696;2023-08-06T04:49:02;3.17;;;1.42;;
8094;SDS011;4090;49.270;8.696;2023-08-06T04:51:44;5.85;;;1.73;;
8094;SDS011;4090;49.270;8.696;2023-08-06T04:54:27;3.92;;;1.30;;
8094;SDS011;4090;49.270;8.696;2023-08-06T04:57:10;8.52;;;1.58;;
8094;SDS011;4090;49.270;8.696;2023-08-06T04:59:52;3.20;;;1.30;;
8094;SDS011;4090;49.270;8.696;2023-08-06T05:02:34;6.53;;;1.60;;
8094;SDS011;4090;49.270;8.696;2023-08-06T05:05:18;4.28;;;1.25;;
8094;SDS011;4090;49.270;8.696;2023-08-06T05:08:00;2.03;;;1.13;;
8094;SDS011;4090;49.270;8.696;2023-08-06T05:10:44;4.40;;;1.02;;
8094;SDS011;4090;49.270;8.696;2023-08-06T05:13:27;4.00;;;1.42;;
8094;SDS011;4090;49.270;8.696;2023-08-06T05:16:09;4.63;;;1.65;;
8094;SDS011;4090;49.270;8.696;2023-08-06T05:18:51;5.65;;;1.38;;
8094;SDS011;4090;49.270;8.696;2023-08-06T05:21:33;6.80;;;1.35;;
8094;SDS011;4090;49.270;8.696;2023-08-06T05:24:15;5.13;;;1.30;;
8094;SDS011;4090;49.270;8.696;2023-08-06T05:26:59;7.47;;;1.08;;
8094;SDS011;4090;49.270;8.696;2023-08-06T05:29:41;4.85;;;1.25;;
8094;SDS011;4090;49.270;8.696;2023-08-06T05:32:23;2.47;;;1.15;;
8094;SDS011;4090;49.270;8.696;2023-08-06T05:35:06;2.03;;;0.93;;
8094;SDS011;4090;49.270;8.696;2023-08-06T05:37:48;5.38;;;1.20;;
8094;SDS011;4090;49.270;8.696;2023-08-06T05:40:32;1.92;;;1.10;;
8094;SDS011;4090;49.270;8.696;2023-08-06T05:43:16;4.63;;;1.45;;
8094;SDS011;4090;49.270;8.696;2023-08-06T05:45:58;4.00;;;1.20;;
8094;SDS011;4090;49.270;8.696;2023-08-06T05:48:40;6.82;;;1.48;;
8094;SDS011;4090;49.270;8.696;2023-08-06T05:51:23;4.45;;;1.50;;
8094;SDS011;4090;49.270;8.696;2023-08-06T05:54:05;7.78;;;1.48;;
8094;SDS011;4090;49.270;8.696;2023-08-06T05:56:47;5.50;;;1.27;;
8094;SDS011;4090;49.270;8.696;2023-08-06T05:59:30;3.60;;;1.67;;
8094;SDS011;4090;49.270;8.696;2023-08-06T06:02:13;4.90;;;1.13;;
8094;SDS011;4090;49.270;8.696;2023-08-06T06:04:55;1.77;;;1.20;;
8094;SDS011;4090;49.270;8.696;2023-08-06T06:07:37;4.53;;;1.40;;
8094;SDS011;4090;49.270;8.696;2023-08-06T06:10:19;2.03;;;1.10;;
8094;SDS011;4090;49.270;8.696;2023-08-06T06:13:01;3.20;;;1.10;;
8094;SDS011;4090;49.270;8.696;2023-08-06T06:15:45;3.03;;;1.02;;
8094;SDS011;4090;49.270;8.696;2023-08-06T06:18:28;1.52;;;0.77;;
8094;SDS011;4090;49.270;8.696;2023-08-06T06:21:10;2.80;;;1.02;;
8094;SDS011;4090;49.270;8.696;2023-08-06T06:23:52;4.03;;;1.20;;
8094;SDS011;4090;49.270;8.696;2023-08-06T06:26:35;14.32;;;2.05;;
8094;SDS011;4090;49.270;8.696;2023-08-06T06:29:17;3.20;;;1.10;;
8094;SDS011;4090;49.270;8.696;2023-08-06T06:32:00;2.13;;;0.93;;
8094;SDS011;4090;49.270;8.696;2023-08-06T06:34:42;2.17;;;0.90;;
8094;SDS011;4090;49.270;8.696;2023-08-06T06:37:25;2.65;;;0.90;;
8094;SDS011;4090;49.270;8.696;2023-08-06T06:40:07;1.45;;;0.93;;
8094;SDS011;4090;49.270;8.696;2023-08-06T06:42:49;1.55;;;0.80;;
8094;SDS011;4090;49.270;8.696;2023-08-06T06:45:31;2.92;;;0.98;;
8094;SDS011;4090;49.270;8.696;2023-08-06T06:48:15;2.05;;;0.93;;
8094;SDS011;4090;49.270;8.696;2023-08-06T06:50:57;3.85;;;1.20;;
8094;SDS011;4090;49.270;8.696;2023-08-06T06:53:39;1.88;;;1.02;;
8094;SDS011;4090;49.270;8.696;2023-08-06T06:56:22;4.22;;;1.60;;
8094;SDS011;4090;49.270;8.696;2023-08-06T06:59:04;3.72;;;1.20;;
8094;SDS011;4090;49.270;8.696;2023-08-06T07:01:46;1.48;;;1.00;;
8094;SDS011;4090;49.270;8.696;2023-08-06T07:04:30;1.48;;;0.80;;
8094;SDS011;4090;49.270;8.696;2023-08-06T07:07:12;1.13;;;0.90;;
8094;SDS011;4090;49.270;8.696;2023-08-06T07:09:54;0.70;;;0.57;;
8094;SDS011;4090;49.270;8.696;2023-08-06T07:12:36;1.27;;;1.00;;
8094;SDS011;4090;49.270;8.696;2023-08-06T07:15:19;5.68;;;0.90;;
8094;SDS011;4090;49.270;8.696;2023-08-06T07:18:01;1.30;;;0.95;;
8094;SDS011;4090;49.270;8.696;2023-08-06T07:20:48;1.17;;;0.52;;
8094;SDS011;4090;49.270;8.696;2023-08-06T07:23:31;1.27;;;0.57;;
8094;SDS011;4090;49.270;8.696;2023-08-06T07:26:13;3.28;;;1.10;;
8094;SDS011;4090;49.270;8.696;2023-08-06T07:28:55;1.15;;;0.85;;
8094;SDS011;4090;49.270;8.696;2023-08-06T07:31:37;0.70;;;0.70;;
8094;SDS011;4090;49.270;8.696;2023-08-06T07:34:20;0.43;;;0.43;;
8094;SDS011;4090;49.270;8.696;2023-08-06T07:37:04;2.38;;;0.85;;
8094;SDS011;4090;49.270;8.696;2023-08-06T07:39:46;0.70;;;0.63;;
8094;SDS011;4090;49.270;8.696;2023-08-06T07:42:28;1.40;;;0.50;;
8094;SDS011;4090;49.270;8.696;2023-08-06T07:45:10;0.50;;;0.50;;
8094;SDS011;4090;49.270;8.696;2023-08-06T07:47:52;2.45;;;0.70;;
8094;SDS011;4090;49.270;8.696;2023-08-06T07:50:35;1.95;;;0.55;;
8094;SDS011;4090;49.270;8.696;2023-08-06T07:53:19;2.50;;;0.95;;
8094;SDS011;4090;49.270;8.696;2023-08-06T07:56:01;1.23;;;0.70;;
8094;SDS011;4090;49.270;8.696;2023-08-06T07:58:43;0.70;;;0.70;;
8094;SDS011;4090;49.270;8.696;2023-08-06T08:01:25;2.67;;;0.70;;
8094;SDS011;4090;49.270;8.696;2023-08-06T08:04:07;1.65;;;0.80;;
8094;SDS011;4090;49.270;8.696;2023-08-06T08:06:50;2.95;;;0.90;;
8094;SDS011;4090;49.270;8.696;2023-08-06T08:09:34;2.33;;;1.00;;
8094;SDS011;4090;49.270;8.696;2023-08-06T08:12:16;2.97;;;0.90;;
8094;SDS011;4090;49.270;8.696;2023-08-06T08:14:58;2.80;;;0.80;;
8094;SDS011;4090;49.270;8.696;2023-08-06T08:17:40;0.80;;;0.80;;
8094;SDS011;4090;49.270;8.696;2023-08-06T08:20:22;1.30;;;0.90;;
8094;SDS011;4090;49.270;8.696;2023-08-06T08:23:05;3.10;;;1.00;;
8094;SDS011;4090;49.270;8.696;2023-08-06T08:25:48;3.03;;;0.80;;
8094;SDS011;4090;49.270;8.696;2023-08-06T08:28:30;1.55;;;0.80;;
8094;SDS011;4090;49.270;8.696;2023-08-06T08:31:13;1.50;;;0.63;;
8094;SDS011;4090;49.270;8.696;2023-08-06T08:33:55;3.75;;;0.90;;
8094;SDS011;4090;49.270;8.696;2023-08-06T08:36:39;1.75;;;1.00;;
8094;SDS011;4090;49.270;8.696;2023-08-06T08:39:21;1.20;;;0.82;;
8094;SDS011;4090;49.270;8.696;2023-08-06T08:42:05;0.85;;;0.85;;
8094;SDS011;4090;49.270;8.696;2023-08-06T08:44:47;2.90;;;0.80;;
8094;SDS011;4090;49.270;8.696;2023-08-06T08:47:29;1.50;;;0.82;;
8094;SDS011;4090;49.270;8.696;2023-08-06T08:50:12;0.70;;;0.70;;
8094;SDS011;4090;49.270;8.696;2023-08-06T08:52:55;3.38;;;0.75;;
8094;SDS011;4090;49.270;8.696;2023-08-06T08:55:38;2.38;;;0.60;;
8094;SDS011;4090;49.270;8.696;2023-08-06T08:58:22;1.23;;;0.30;;
8094;SDS011;4090;49.270;8.696;2023-08-06T09:01:04;1.65;;;0.60;;
8094;SDS011;4090;49.270;8.696;2023-08-06T09:03:48;3.90;;;1.20;;
8094;SDS011;4090;49.270;8.696;2023-08-06T09:06:30;1.02;;;0.60;;
8094;SDS011;4090;49.270;8.696;2023-08-06T09:09:15;1.05;;;0.47;;
8094;SDS011;4090;49.270;8.696;2023-08-06T09:11:59;1.00;;;0.60;;
8094;SDS011;4090;49.270;8.696;2023-08-06T09:14:43;0.50;;;0.50;;
8094;SDS011;4090;49.270;8.696;2023-08-06T09:17:26;0.75;;;0.47;;
8094;SDS011;4090;49.270;8.696;2023-08-06T09:20:09;0.35;;;0.32;;
8094;SDS011;4090;49.270;8.696;2023-08-06T09:22:52;2.05;;;0.50;;
8094;SDS011;4090;49.270;8.696;2023-08-06T09:25:36;1.17;;;0.68;;
8094;SDS011;4090;49.270;8.696;2023-08-06T09:28:19;0.95;;;0.80;;
8094;SDS011;4090;49.270;8.696;2023-08-06T09:31:03;1.48;;;0.60;;
8094;SDS011;4090;49.270;8.696;2023-08-06T09:33:45;1.25;;;0.88;;
8094;SDS011;4090;49.270;8.696;2023-08-06T09:36:29;2.53;;;0.73;;
8094;SDS011;4090;49.270;8.696;2023-08-06T09:39:15;4.95;;;0.77;;
8094;SDS011;4090;49.270;8.696;2023-08-06T09:41:57;4.05;;;0.60;;
8094;SDS011;4090;49.270;8.696;2023-08-06T09:44:40;1.63;;;0.60;;
8094;SDS011;4090;49.270;8.696;2023-08-06T09:47:24;0.50;;;0.47;;
8094;SDS011;4090;49.270;8.696;2023-08-06T09:50:06;0.75;;;0.30;;
8094;SDS011;4090;49.270;8.696;2023-08-06T09:52:56;0.50;;;0.50;;
8094;SDS011;4090;49.270;8.696;2023-08-06T09:55:39;1.70;;;0.40;;
8094;SDS011;4090;49.270;8.696;2023-08-06T09:58:21;0.45;;;0.45;;
8094;SDS011;4090;49.270;8.696;2023-08-06T10:01:05;0.50;;;0.50;;
8094;SDS011;4090;49.270;8.696;2023-08-06T10:03:48;0.45;;;0.45;;
8094;SDS011;4090;49.270;8.696;2023-08-06T10:06:31;0.50;;;0.50;;
8094;SDS011;4090;49.270;8.696;2023-08-06T10:09:15;1.55;;;0.30;;
8094;SDS011;4090;49.270;8.696;2023-08-06T10:11:58;0.40;;;0.40;;
8094;SDS011;4090;49.270;8.696;2023-08-06T10:14:41;0.65;;;0.30;;
8094;SDS011;4090;49.270;8.696;2023-08-06T10:17:24;0.40;;;0.38;;
8094;SDS011;4090;49.270;8.696;2023-08-06T10:20:09;0.57;;;0.52;;
8094;SDS011;4090;49.270;8.696;2023-08-06T10:23:01;0.32;;;0.32;;
8094;SDS011;4090;49.270;8.696;2023-08-06T10:25:43;0.30;;;0.30;;
8094;SDS011;4090;49.270;8.696;2023-08-06T10:28:36;0.30;;;0.30;;
8094;SDS011;4090;49.270;8.696;2023-08-06T10:31:18;1.25;;;0.50;;
8094;SDS011;4090;49.270;8.696;2023-08-06T10:34:01;0.40;;;0.40;;
8094;SDS011;4090;49.270;8.696;2023-08-06T10:36:44;0.50;;;0.50;;
8094;SDS011;4090;49.270;8.696;2023-08-06T10:39:26;0.73;;;0.73;;
8094;SDS011;4090;49.270;8.696;2023-08-06T10:42:18;0.30;;;0.30;;
8094;SDS011;4090;49.270;8.696;2023-08-06T10:45:16;0.95;;;0.50;;
8094;SDS011;4090;49.270;8.696;2023-08-06T10:47:59;0.55;;;0.47;;
8094;SDS011;4090;49.270;8.696;2023-08-06T10:50:41;0.45;;;0.35;;
8094;SDS011;4090;49.270;8.696;2023-08-06T10:53:25;1.95;;;0.50;;
8094;SDS011;4090;49.270;8.696;2023-08-06T10:56:11;0.32;;;0.30;;
8094;SDS011;4090;49.270;8.696;2023-08-06T10:58:54;0.60;;;0.60;;
8094;SDS011;4090;49.270;8.696;2023-08-06T11:01:37;1.00;;;0.60;;
8094;SDS011;4090;49.270;8.696;2023-08-06T11:04:20;0.68;;;0.68;;
8094;SDS011;4090;49.270;8.696;2023-08-06T11:07:03;0.80;;;0.80;;
8094;SDS011;4090;49.270;8.696;2023-08-06T11:09:49;1.48;;;0.90;;
8094;SDS011;4090;49.270;8.696;2023-08-06T11:12:32;0.80;;;0.80;;
8094;SDS011;4090;49.270;8.696;2023-08-06T11:15:15;1.92;;;0.82;;
8094;SDS011;4090;49.270;8.696;2023-08-06T11:17:57;1.10;;;1.00;;
8094;SDS011;4090;49.270;8.696;2023-08-06T11:20:39;1.02;;;0.98;;
8094;SDS011;4090;49.270;8.696;2023-08-06T11:23:22;1.63;;;1.25;;
8094;SDS011;4090;49.270;8.696;2023-08-06T11:26:05;1.10;;;1.00;;
8094;SDS011;4090;49.270;8.696;2023-08-06T11:28:48;1.52;;;1.30;;
8094;SDS011;4090;49.270;8.696;2023-08-06T11:31:30;1.38;;;1.02;;
8094;SDS011;4090;49.270;8.696;2023-08-06T11:34:12;1.85;;;1.40;;
8094;SDS011;4090;49.270;8.696;2023-08-06T11:36:56;1.95;;;1.42;;
8094;SDS011;4090;49.270;8.696;2023-08-06T11:39:39;1.30;;;1.20;;
8094;SDS011;4090;49.270;8.696;2023-08-06T11:42:27;3.25;;;1.23;;
8094;SDS011;4090;49.270;8.696;2023-08-06T11:45:12;1.38;;;1.27;;
8094;SDS011;4090;49.270;8.696;2023-08-06T11:47:55;2.00;;;1.60;;
8094;SDS011;4090;49.270;8.696;2023-08-06T11:50:38;3.22;;;1.40;;
8094;SDS011;4090;49.270;8.696;2023-08-06T11:53:20;3.75;;;1.45;;
8094;SDS011;4090;49.270;8.696;2023-08-06T11:56:02;1.63;;;1.50;;
8094;SDS011;4090;49.270;8.696;2023-08-06T11:58:46;1.73;;;1.55;;
8094;SDS011;4090;49.270;8.696;2023-08-06T12:01:29;1.95;;;1.85;;
8094;SDS011;4090;49.270;8.696;2023-08-06T12:04:11;1.85;;;1.52;;
8094;SDS011;4090;49.270;8.696;2023-08-06T12:06:53;2.22;;;1.70;;
8094;SDS011;4090;49.270;8.696;2023-08-06T12:09:35;2.15;;;1.67;;
8094;SDS011;4090;49.270;8.696;2023-08-06T12:12:18;3.17;;;1.45;;
8094;SDS011;4090;49.270;8.696;2023-08-06T12:15:02;1.77;;;1.40;;
8094;SDS011;4090;49.270;8.696;2023-08-06T12:17:44;1.40;;;1.30;;
8094;SDS011;4090;49.270;8.696;2023-08-06T12:20:27;1.92;;;1.58;;
8094;SDS011;4090;49.270;8.696;2023-08-06T12:23:09;1.42;;;1.33;;
8094;SDS011;4090;49.270;8.696;2023-08-06T12:25:55;1.58;;;1.45;;
8094;SDS011;4090;49.270;8.696;2023-08-06T12:28:38;2.40;;;1.60;;
8094;SDS011;4090;49.270;8.696;2023-08-06T12:31:22;2.22;;;2.00;;
8094;SDS011;4090;49.270;8.696;2023-08-06T12:34:04;1.70;;;1.55;;
8094;SDS011;4090;49.270;8.696;2023-08-06T12:36:46;1.63;;;1.52;;
8094;SDS011;4090;49.270;8.696;2023-08-06T12:39:28;2.10;;;1.90;;
8094;SDS011;4090;49.270;8.696;2023-08-06T12:42:11;2.13;;;1.90;;
8094;SDS011;4090;49.270;8.696;2023-08-06T12:44:53;2.25;;;1.90;;
8094;SDS011;4090;49.270;8.696;2023-08-06T12:47:37;2.55;;;2.03;;
8094;SDS011;4090;49.270;8.696;2023-08-06T12:50:19;2.45;;;2.13;;
8094;SDS011;4090;49.270;8.696;2023-08-06T12:53:01;2.50;;;1.95;;
8094;SDS011;4090;49.270;8.696;2023-08-06T12:55:45;3.13;;;1.80;;
8094;SDS011;4090;49.270;8.696;2023-08-06T12:58:27;3.88;;;2.08;;
8094;SDS011;4090;49.270;8.696;2023-08-06T13:01:09;2.50;;;2.13;;
8094;SDS011;4090;49.270;8.696;2023-08-06T13:03:53;3.30;;;2.00;;
8094;SDS011;4090;49.270;8.696;2023-08-06T13:06:35;2.85;;;2.22;;
8094;SDS011;4090;49.270;8.696;2023-08-06T13:09:19;4.38;;;1.90;;
8094;SDS011;4090;49.270;8.696;2023-08-06T13:12:01;2.30;;;2.10;;
8094;SDS011;4090;49.270;8.696;2023-08-06T13:14:45;2.67;;;2.08;;
8094;SDS011;4090;49.270;8.696;2023-08-06T13:17:28;2.22;;;1.85;;
8094;SDS011;4090;49.270;8.696;2023-08-06T13:20:11;2.13;;;1.90;;
8094;SDS011;4090;49.270;8.696;2023-08-06T13:22:54;1.80;;;1.70;;
8094;SDS011;4090;49.270;8.696;2023-08-06T13:25:36;2.03;;;1.75;;
8094;SDS011;4090;49.270;8.696;2023-08-06T13:28:19;3.08;;;1.88;;
8094;SDS011;4090;49.270;8.696;2023-08-06T13:31:01;3.75;;;2.00;;
8094;SDS011;4090;49.270;8.696;2023-08-06T13:33:43;2.70;;;1.92;;
8094;SDS011;4090;49.270;8.696;2023-08-06T13:36:27;2.17;;;1.95;;
8094;SDS011;4090;49.270;8.696;2023-08-06T13:39:09;2.80;;;1.88;;
8094;SDS011;4090;49.270;8.696;2023-08-06T13:41:52;1.58;;;1.40;;
8094;SDS011;4090;49.270;8.696;2023-08-06T13:44:34;2.20;;;1.70;;
8094;SDS011;4090;49.270;8.696;2023-08-06T13:47:16;3.78;;;1.92;;
8094;SDS011;4090;49.270;8.696;2023-08-06T13:49:58;1.45;;;1.33;;
8094;SDS011;4090;49.270;8.696;2023-08-06T13:52:42;1.88;;;1.70;;
8094;SDS011;4090;49.270;8.696;2023-08-06T13:55:24;3.90;;;1.77;;
8094;SDS011;4090;49.270;8.696;2023-08-06T13:58:06;3.63;;;1.92;;
8094;SDS011;4090;49.270;8.696;2023-08-06T14:00:49;2.10;;;1.40;;
8094;SDS011;4090;49.270;8.696;2023-08-06T14:03:33;1.73;;;1.38;;
8094;SDS011;4090;49.270;8.696;2023-08-06T14:06:15;3.33;;;1.50;;
8094;SDS011;4090;49.270;8.696;2023-08-06T14:08:59;3.75;;;1.50;;
8094;SDS011;4090;49.270;8.696;2023-08-06T14:11:41;1.67;;;1.40;;
8094;SDS011;4090;49.270;8.696;2023-08-06T14:14:23;1.10;;;0.98;;
8094;SDS011;4090;49.270;8.696;2023-08-06T14:17:07;3.35;;;1.40;;
8094;SDS011;4090;49.270;8.696;2023-08-06T14:19:49;2.90;;;1.40;;
8094;SDS011;4090;49.270;8.696;2023-08-06T14:22:31;1.40;;;1.30;;
8094;SDS011;4090;49.270;8.696;2023-08-06T14:25:15;3.83;;;1.63;;
8094;SDS011;4090;49.270;8.696;2023-08-06T14:27:57;1.70;;;1.23;;
8094;SDS011;4090;49.270;8.696;2023-08-06T14:30:39;1.80;;;1.20;;
8094;SDS011;4090;49.270;8.696;2023-08-06T14:33:21;1.20;;;1.10;;
8094;SDS011;4090;49.270;8.696;2023-08-06T14:36:04;2.03;;;1.30;;
8094;SDS011;4090;49.270;8.696;2023-08-06T14:38:46;1.30;;;1.20;;
8094;SDS011;4090;49.270;8.696;2023-08-06T14:41:29;2.08;;;1.40;;
8094;SDS011;4090;49.270;8.696;2023-08-06T14:44:12;2.38;;;1.10;;
8094;SDS011;4090;49.270;8.696;2023-08-06T14:46:54;3.53;;;1.65;;
8094;SDS011;4090;49.270;8.696;2023-08-06T14:49:37;3.97;;;1.20;;
8094;SDS011;4090;49.270;8.696;2023-08-06T14:52:19;1.23;;;1.10;;
8094;SDS011;4090;49.270;8.696;2023-08-06T14:55:02;1.30;;;1.20;;
8094;SDS011;4090;49.270;8.696;2023-08-06T14:57:45;1.40;;;1.30;;
8094;SDS011;4090;49.270;8.696;2023-08-06T15:00:27;2.25;;;1.17;;
8094;SDS011;4090;49.270;8.696;2023-08-06T15:03:10;2.33;;;1.25;;
8094;SDS011;4090;49.270;8.696;2023-08-06T15:05:52;4.07;;;1.40;;
8094;SDS011;4090;49.270;8.696;2023-08-06T15:08:34;1.85;;;1.30;;
8094;SDS011;4090;49.270;8.696;2023-08-06T15:11:17;1.45;;;1.35;;
8094;SDS011;4090;49.270;8.696;2023-08-06T15:14:00;4.15;;;1.27;;
8094;SDS011;4090;49.270;8.696;2023-08-06T15:16:46;1.65;;;1.27;;
8094;SDS011;4090;49.270;8.696;2023-08-06T15:19:28;2.80;;;1.50;;
8094;SDS011;4090;49.270;8.696;2023-08-06T15:22:10;1.63;;;1.40;;
8094;SDS011;4090;49.270;8.696;2023-08-06T15:24:52;1.48;;;1.38;;
8094;SDS011;4090;49.270;8.696;2023-08-06T15:27:34;2.65;;;1.80;;
8094;SDS011;4090;49.270;8.696;2023-08-06T15:30:18;1.67;;;1.58;;
8094;SDS011;4090;49.270;8.696;2023-08-06T15:33:01;1.98;;;1.65;;
8094;SDS011;4090;49.270;8.696;2023-08-06T15:35:43;3.10;;;1.60;;
8094;SDS011;4090;49.270;8.696;2023-08-06T15:38:25;2.58;;;1.50;;
8094;SDS011;4090;49.270;8.696;2023-08-06T15:41:07;2.25;;;1.85;;
8094;SDS011;4090;49.270;8.696;2023-08-06T15:43:50;3.67;;;1.55;;
8094;SDS011;4090;49.270;8.696;2023-08-06T15:46:33;2.95;;;1.50;;
8094;SDS011;4090;49.270;8.696;2023-08-06T15:49:16;1.40;;;1.30;;
8094;SDS011;4090;49.270;8.696;2023-08-06T15:51:58;1.95;;;1.20;;
8094;SDS011;4090;49.270;8.696;2023-08-06T15:54:41;3.15;;;1.40;;
8094;SDS011;4090;49.270;8.696;2023-08-06T15:57:23;1.92;;;1.38;;
8094;SDS011;4090;49.270;8.696;2023-08-06T16:00:05;1.00;;;1.00;;
8094;SDS011;4090;49.270;8.696;2023-08-06T16:02:57;2.00;;;1.35;;
8094;SDS011;4090;49.270;8.696;2023-08-06T16:05:39;3.30;;;1.42;;
8094;SDS011;4090;49.270;8.696;2023-08-06T16:08:23;2.15;;;1.40;;
8094;SDS011;4090;49.270;8.696;2023-08-06T16:11:05;1.10;;;1.02;;
8094;SDS011;4090;49.270;8.696;2023-08-06T16:13:47;1.33;;;1.10;;
8094;SDS011;4090;49.270;8.696;2023-08-06T16:16:29;1.42;;;1.23;;
8094;SDS011;4090;49.270;8.696;2023-08-06T16:19:14;5.13;;;1.30;;
8094;SDS011;4090;49.270;8.696;2023-08-06T16:21:56;1.08;;;1.02;;
8094;SDS011;4090;49.270;8.696;2023-08-06T16:24:38;2.08;;;1.17;;
8094;SDS011;4090;49.270;8.696;2023-08-06T16:27:20;2.45;;;1.30;;
8094;SDS011;4090;49.270;8.696;2023-08-06T16:30:03;1.30;;;1.20;;
8094;SDS011;4090;49.270;8.696;2023-08-06T16:32:45;2.90;;;1.23;;
8094;SDS011;4090;49.270;8.696;2023-08-06T16:35:28;1.73;;;1.30;;
8094;SDS011;4090;49.270;8.696;2023-08-06T16:38:11;1.55;;;1.20;;
8094;SDS011;4090;49.270;8.696;2023-08-06T16:40:53;1.33;;;1.17;;
8094;SDS011;4090;49.270;8.696;2023-08-06T16:43:36;1.55;;;1.30;;
8094;SDS011;4090;49.270;8.696;2023-08-06T16:46:18;1.30;;;1.20;;
8094;SDS011;4090;49.270;8.696;2023-08-06T16:49:00;3.95;;;1.30;;
8094;SDS011;4090;49.270;8.696;2023-08-06T16:51:44;2.17;;;1.20;;